Decoded Metar for YSDU (DUBBO in AUSTRALIA) (IATA:DBO) | Meteo·Mobile Aviation Weather
aviador You're here:

YSDU Decoded Metar

DUBBO in AUSTRALIA
Report Time2018-10-19 08:00:00
UTC Time2018-10-19 08:37:39
Flight Rules vfr VFR
Wind360° at 01 kt
W.Decomp.*RWY 29: 0.5 kt HW 0.9 kt RCW
RWY 05: 0.5 kt HW 0.9 kt LCW
Visibility9999 m
Phenomena:N/A
Clouds:N/A
Expected CloudBase > 4,400 ft AGL from Temp-Dew spread
CeilingNone
Temp26°C (ISA +13)
Dew Point15°C (51% RH)
QNH1013 hPa
Density Alt2,608 ft
Elevation902 ft
Report Wrong Elevation
Raw Report
YSDU 190800Z AUTO 36001KT 9999 // NCD 26/15 Q1013=

Extra information for YSDU:More info

Metar Taf Metar & Taf Last 4 Metars F.Rules Stats Wind Profile Meteogram Temp Stats Airport Information Weather charts Add Link Nearby VenuesMetar ALERT Operation Metar Decoded Social comments